Time;durP1;ratioP1;P1;durP2;ratioP2;P2;SDS_P1;SDS_P2;PMS_P1;PMS_P2;Temp;Humidity;BMP_temperature;BMP_pressure;BME280_temperature;BME280_humidity;BME280_pressure;Samples;Min_cycle;Max_cycle;Signal;HPM_P1;HPM_P2
2022/07/01 00:02:17;;;;;;;3.58;2.00;;;11.60;99.90;;;;;;5054105;28;20376;-86
2022/07/01 00:04:44;;;;;;;3.70;2.00;;;11.60;99.90;;;;;;5053421;28;20474;-85
2022/07/01 00:07:12;;;;;;;3.50;1.80;;;11.70;99.90;;;;;;5053136;28;20371;-85
2022/07/01 00:09:39;;;;;;;2.93;1.80;;;11.60;99.90;;;;;;5053124;28;20391;-87
2022/07/01 00:12:06;;;;;;;4.63;1.70;;;11.60;99.90;;;;;;5053593;28;20376;-85
2022/07/01 00:14:34;;;;;;;4.55;1.65;;;11.70;99.90;;;;;;5052519;28;20494;-84
2022/07/01 00:17:01;;;;;;;10.48;2.00;;;11.80;99.90;;;;;;5053421;28;20379;-89
2022/07/01 00:19:28;;;;;;;7.85;1.70;;;11.90;99.90;;;;;;5053033;28;20407;-85
2022/07/01 00:21:55;;;;;;;3.90;1.48;;;11.90;99.90;;;;;;5053170;28;20451;-84
2022/07/01 00:24:23;;;;;;;3.88;1.60;;;12.00;99.90;;;;;;5053054;28;20382;-83
2022/07/01 00:26:50;;;;;;;3.40;1.67;;;12.00;99.90;;;;;;5052841;28;20479;-83
2022/07/01 00:29:17;;;;;;;3.55;1.65;;;12.10;99.90;;;;;;5052832;28;20450;-84
2022/07/01 00:31:44;;;;;;;4.38;1.60;;;12.10;99.90;;;;;;5052565;28;20395;-85
2022/07/01 00:34:12;;;;;;;3.55;1.65;;;12.10;99.90;;;;;;5052715;28;20434;-83
2022/07/01 00:36:39;;;;;;;2.40;1.52;;;12.30;99.90;;;;;;5053096;28;20391;-86
2022/07/01 00:39:06;;;;;;;2.80;1.50;;;12.20;99.90;;;;;;5052920;28;20764;-84
2022/07/01 00:41:33;;;;;;;4.13;1.67;;;12.20;99.90;;;;;;5051372;28;20391;-87
2022/07/01 00:44:00;;;;;;;3.60;1.60;;;12.10;99.90;;;;;;5052611;28;20380;-85
2022/07/01 00:46:27;;;;;;;3.80;1.75;;;12.20;99.90;;;;;;5052643;28;20383;-85
2022/07/01 00:48:58;;;;;;;1.98;1.58;;;12.20;99.90;;;;;;5052433;28;20468;-84
2022/07/01 00:51:25;;;;;;;3.63;1.70;;;12.20;99.90;;;;;;5052692;28;20374;-89
2022/07/01 00:53:52;;;;;;;2.05;1.50;;;12.20;99.90;;;;;;5052852;28;20775;-84
2022/07/01 00:56:20;;;;;;;2.50;1.55;;;12.20;99.90;;;;;;5052427;28;20415;-84
2022/07/01 00:58:47;;;;;;;2.45;1.67;;;12.20;99.90;;;;;;5052289;28;20380;-86
2022/07/01 01:01:15;;;;;;;4.57;1.65;;;12.20;99.90;;;;;;5052218;28;20398;-86
2022/07/01 01:03:42;;;;;;;2.10;1.40;;;12.10;99.90;;;;;;5052235;28;20383;-84
2022/07/01 01:06:10;;;;;;;3.70;1.90;;;12.10;99.90;;;;;;5052259;28;20455;-85
2022/07/01 01:08:38;;;;;;;3.72;1.92;;;12.10;99.90;;;;;;5052443;28;20371;-83
2022/07/01 01:11:05;;;;;;;2.17;1.50;;;12.10;99.90;;;;;;5052791;28;20380;-86
2022/07/01 01:13:33;;;;;;;2.47;1.40;;;12.10;99.90;;;;;;5055314;28;20372;-89
2022/07/01 01:16:00;;;;;;;3.78;1.50;;;12.20;99.90;;;;;;5053762;28;20414;-86
2022/07/01 01:18:27;;;;;;;3.10;1.40;;;12.20;99.90;;;;;;5053303;28;20382;-89
2022/07/01 01:20:55;;;;;;;2.67;1.50;;;12.20;99.90;;;;;;5052629;28;20415;-87
2022/07/01 01:23:22;;;;;;;3.08;1.60;;;12.30;99.90;;;;;;5052124;28;20383;-84
2022/07/01 01:25:49;;;;;;;2.83;1.50;;;12.40;99.90;;;;;;5053551;28;20911;-85
2022/07/01 01:28:17;;;;;;;3.80;1.53;;;12.30;99.90;;;;;;5056216;28;20462;-86
2022/07/01 01:30:44;;;;;;;2.97;1.60;;;12.40;99.90;;;;;;5056003;28;20399;-84
2022/07/01 01:33:11;;;;;;;2.88;1.60;;;12.40;99.90;;;;;;5056097;28;20933;-84
2022/07/01 01:35:40;;;;;;;2.70;1.53;;;12.30;99.90;;;;;;5055983;28;20403;-82
2022/07/01 01:38:07;;;;;;;2.75;1.55;;;12.40;99.90;;;;;;5056341;28;20437;-85
2022/07/01 01:40:34;;;;;;;2.03;1.45;;;12.40;99.90;;;;;;5056145;28;20470;-86
2022/07/01 01:43:01;;;;;;;3.60;1.75;;;12.40;99.90;;;;;;5055928;28;20383;-89
2022/07/01 01:45:29;;;;;;;2.80;1.60;;;12.40;99.90;;;;;;5055915;28;20379;-87
2022/07/01 01:47:56;;;;;;;1.98;1.33;;;12.50;99.90;;;;;;5055872;28;20379;-87
2022/07/01 01:50:23;;;;;;;2.67;1.50;;;12.50;99.90;;;;;;5055898;28;20780;-82
2022/07/01 01:52:50;;;;;;;2.15;1.50;;;12.50;99.90;;;;;;5056045;28;20437;-86
2022/07/01 01:55:17;;;;;;;3.25;1.50;;;12.50;99.90;;;;;;5055795;28;20521;-88
2022/07/01 01:57:45;;;;;;;3.33;1.50;;;12.60;99.90;;;;;;5056267;28;20473;-83
2022/07/01 02:00:12;;;;;;;2.97;1.70;;;12.60;99.90;;;;;;5057895;28;20387;-88
2022/07/01 02:02:40;;;;;;;2.38;1.60;;;12.60;99.90;;;;;;5055364;28;20365;-88
2022/07/01 02:05:10;;;;;;;2.50;1.60;;;12.70;99.90;;;;;;5059572;28;20372;-84
2022/07/01 02:07:38;;;;;;;3.33;1.83;;;12.60;99.90;;;;;;5065462;28;20427;-84
2022/07/01 02:10:05;;;;;;;3.47;1.60;;;12.60;99.90;;;;;;5055696;28;20461;-88
2022/07/01 02:12:33;;;;;;;3.47;1.60;;;12.70;99.90;;;;;;5055466;28;20399;-83
2022/07/01 02:15:00;;;;;;;4.43;1.60;;;12.70;99.90;;;;;;5055273;28;20403;-84
2022/07/01 02:17:27;;;;;;;3.70;1.80;;;12.70;99.90;;;;;;5055256;28;20932;-83
2022/07/01 02:19:54;;;;;;;4.38;1.60;;;12.70;99.90;;;;;;5055328;28;20859;-88
2022/07/01 02:22:21;;;;;;;2.80;1.50;;;12.70;99.90;;;;;;5055347;28;20372;-86
2022/07/01 02:24:49;;;;;;;3.28;1.50;;;12.60;99.90;;;;;;5057444;28;20446;-83
2022/07/01 02:27:16;;;;;;;2.25;1.48;;;12.60;99.90;;;;;;5056932;28;20884;-87
2022/07/01 02:29:43;;;;;;;3.50;1.50;;;12.70;99.90;;;;;;5054903;28;20886;-88
2022/07/01 02:32:10;;;;;;;3.17;1.50;;;12.70;99.90;;;;;;5057662;28;20380;-85
2022/07/01 02:34:38;;;;;;;4.90;1.52;;;12.60;99.90;;;;;;5055124;28;20403;-89
2022/07/01 02:37:05;;;;;;;4.00;1.70;;;12.60;99.90;;;;;;5054502;28;20860;-89
2022/07/01 02:39:33;;;;;;;2.58;1.52;;;12.40;99.90;;;;;;5054925;28;20474;-89
2022/07/01 02:44:46;;;;;;;4.47;1.85;;;12.40;99.90;;;;;;5055095;28;20879;-84
2022/07/01 02:47:13;;;;;;;4.75;1.65;;;12.40;99.90;;;;;;5055459;28;20497;-89
2022/07/01 02:49:40;;;;;;;5.53;1.92;;;12.40;99.90;;;;;;5055060;28;20382;-89
2022/07/01 02:52:07;;;;;;;3.83;1.80;;;12.40;99.90;;;;;;5054849;28;20391;-84
2022/07/01 02:54:34;;;;;;;4.78;1.65;;;12.40;99.90;;;;;;5054422;28;20856;-84
2022/07/01 02:57:01;;;;;;;4.93;1.80;;;12.30;99.90;;;;;;5054588;28;20732;-89
2022/07/01 02:59:29;;;;;;;2.40;1.58;;;12.20;99.90;;;;;;5054388;28;20370;-83
2022/07/01 03:01:56;;;;;;;4.20;1.90;;;12.10;99.90;;;;;;5054852;28;20840;-87
2022/07/01 03:04:23;;;;;;;3.78;1.70;;;12.00;99.90;;;;;;5054568;28;20412;-83
2022/07/01 03:06:50;;;;;;;2.90;1.60;;;12.00;99.90;;;;;;5054326;28;20372;-86
2022/07/01 03:09:17;;;;;;;4.78;1.50;;;11.90;99.90;;;;;;5054187;28;20372;-87
2022/07/01 03:11:45;;;;;;;3.07;1.67;;;11.90;99.90;;;;;;5054304;28;20800;-87
2022/07/01 03:14:12;;;;;;;4.10;1.60;;;11.80;99.90;;;;;;5054113;28;20494;-85
2022/07/01 03:16:39;;;;;;;2.53;1.50;;;11.80;99.90;;;;;;5054159;28;20380;-89
2022/07/01 03:19:06;;;;;;;4.18;1.67;;;11.90;99.90;;;;;;5054004;28;20386;-86
2022/07/01 03:21:34;;;;;;;4.90;1.80;;;12.00;99.90;;;;;;5054672;28;20376;-82
2022/07/01 03:24:01;;;;;;;3.67;1.80;;;12.00;99.90;;;;;;5054327;28;20396;-82
2022/07/01 03:26:28;;;;;;;2.80;1.52;;;12.10;99.90;;;;;;5053936;28;20445;-86
2022/07/01 03:28:55;;;;;;;2.30;1.20;;;12.10;99.90;;;;;;5053929;28;20438;-86
2022/07/01 03:31:22;;;;;;;4.43;1.20;;;12.20;99.90;;;;;;5053892;28;20400;-87
2022/07/01 03:33:49;;;;;;;1.90;1.00;;;12.20;99.90;;;;;;5053797;28;20831;-86
2022/07/01 03:36:17;;;;;;;2.35;1.10;;;12.20;99.90;;;;;;5054077;28;20388;-82
2022/07/01 03:38:44;;;;;;;1.63;1.10;;;12.20;99.90;;;;;;5053737;28;20383;-82
2022/07/01 03:41:11;;;;;;;3.13;1.20;;;12.20;99.90;;;;;;5052455;28;20729;-86
2022/07/01 03:43:38;;;;;;;2.80;1.20;;;12.10;99.90;;;;;;5053583;28;20375;-87
2022/07/01 03:46:05;;;;;;;3.10;1.20;;;12.20;99.90;;;;;;5053611;28;20437;-82
2022/07/01 03:48:33;;;;;;;1.35;0.90;;;12.10;99.90;;;;;;5052588;28;20372;-84
2022/07/01 03:51:00;;;;;;;1.70;1.10;;;12.10;99.90;;;;;;5053397;28;20375;-85
2022/07/01 03:56:13;;;;;;;1.83;1.10;;;12.20;99.90;;;;;;5053242;28;20897;-84
2022/07/01 03:58:40;;;;;;;2.35;1.02;;;12.10;99.90;;;;;;5053685;28;20380;-87
2022/07/01 04:01:07;;;;;;;2.05;1.10;;;12.10;99.90;;;;;;5053071;28;20378;-84
2022/07/01 04:03:34;;;;;;;1.20;1.10;;;12.10;99.90;;;;;;5052984;28;20442;-84
2022/07/01 04:06:01;;;;;;;2.55;1.30;;;12.10;99.90;;;;;;5053056;28;20456;-85
2022/07/01 04:08:28;;;;;;;2.33;1.05;;;12.10;99.90;;;;;;5052965;28;20376;-84
2022/07/01 04:10:56;;;;;;;2.43;1.30;;;12.00;99.90;;;;;;5052924;28;20878;-84
2022/07/01 04:13:24;;;;;;;5.03;2.10;;;12.00;99.90;;;;;;5051718;28;20894;-86
2022/07/01 04:15:51;;;;;;;3.42;1.60;;;12.00;99.90;;;;;;5052716;28;20438;-84
2022/07/01 04:18:19;;;;;;;2.53;1.40;;;12.10;99.90;;;;;;5052980;28;20380;-82
2022/07/01 04:22:32;;;;;;;2.30;1.30;;;12.00;99.90;;;;;;5052813;28;20391;-82
2022/07/01 04:23:33;;;;;;;2.13;1.27;;;11.90;99.90;;;;;;5052688;28;20383;-83
2022/07/01 04:26:01;;;;;;;2.90;1.30;;;11.90;99.90;;;;;;5052641;28;20440;-86
2022/07/01 04:28:28;;;;;;;2.33;1.17;;;11.80;99.90;;;;;;5052604;28;20979;-87
2022/07/01 04:30:55;;;;;;;1.52;1.10;;;11.70;99.90;;;;;;5052504;28;20458;-85
2022/07/01 04:33:22;;;;;;;3.50;1.15;;;11.70;99.90;;;;;;5052506;28;20893;-86
2022/07/01 04:35:49;;;;;;;2.53;1.10;;;11.60;99.90;;;;;;5052669;28;20478;-83
2022/07/01 04:38:20;;;;;;;4.35;1.23;;;11.60;99.90;;;;;;5051579;28;20537;-84
2022/07/01 04:43:32;;;;;;;2.65;1.30;;;11.50;99.90;;;;;;5052725;28;20506;-87
2022/07/01 04:45:59;;;;;;;2.35;1.20;;;11.50;99.90;;;;;;5052182;28;20379;-86
2022/07/01 04:48:26;;;;;;;4.18;1.40;;;11.40;99.90;;;;;;5052296;28;20733;-84
2022/07/01 04:50:53;;;;;;;3.60;1.77;;;11.40;99.90;;;;;;5052273;28;20375;-85
2022/07/01 04:53:20;;;;;;;26.42;19.48;;;11.30;99.90;;;;;;5052180;28;20407;-80
2022/07/01 04:55:47;;;;;;;23.90;17.70;;;11.40;99.90;;;;;;5052013;28;20401;-85
2022/07/01 04:58:14;;;;;;;11.15;8.02;;;11.30;99.90;;;;;;5052064;28;20371;-82
2022/07/01 05:00:42;;;;;;;19.60;14.23;;;11.30;99.90;;;;;;5051916;28;20418;-85
2022/07/01 05:03:12;;;;;;;12.98;7.95;;;11.20;99.90;;;;;;5052095;28;20372;-84
2022/07/01 05:05:39;;;;;;;16.42;11.85;;;11.20;99.90;;;;;;5052218;28;20380;-83
2022/07/01 05:08:06;;;;;;;9.98;8.93;;;11.20;99.90;;;;;;5051754;28;20786;-81
2022/07/01 05:10:34;;;;;;;16.73;13.40;;;11.10;99.90;;;;;;5051906;28;20446;-82
2022/07/01 05:13:01;;;;;;;12.77;9.98;;;11.10;99.90;;;;;;5052261;28;20383;-87
2022/07/01 05:15:28;;;;;;;8.68;6.72;;;11.10;99.90;;;;;;5051805;28;20439;-84
2022/07/01 05:23:25;;;;;;;4.95;2.88;;;11.00;99.90;;;;;;5052132;28;20409;-84
2022/07/01 05:25:52;;;;;;;64.68;54.83;;;11.00;99.90;;;;;;5051737;28;20408;-84
2022/07/01 05:28:19;;;;;;;53.70;42.70;;;10.90;99.90;;;;;;5051613;28;20433;-82
2022/07/01 05:30:46;;;;;;;18.08;12.88;;;10.90;99.90;;;;;;5051460;28;20467;-82
2022/07/01 05:33:13;;;;;;;101.33;64.47;;;10.90;99.90;;;;;;5051659;28;20872;-80
2022/07/01 05:35:41;;;;;;;40.63;26.65;;;10.90;99.90;;;;;;5051522;28;20431;-83
2022/07/01 05:38:08;;;;;;;8.75;4.93;;;10.90;99.90;;;;;;5051938;28;20372;-81
2022/07/01 05:40:35;;;;;;;5.28;3.13;;;10.80;99.90;;;;;;5051613;28;20372;-84
2022/07/01 05:43:02;;;;;;;7.70;3.38;;;10.70;99.90;;;;;;5051623;28;20376;-81
2022/07/01 05:45:29;;;;;;;5.00;3.10;;;10.70;99.90;;;;;;5051694;28;20440;-85
2022/07/01 05:47:56;;;;;;;7.38;6.10;;;10.80;99.90;;;;;;5052097;28;20725;-81
2022/07/01 05:50:24;;;;;;;6.15;4.90;;;10.80;99.90;;;;;;5051702;28;20372;-78
2022/07/01 05:52:51;;;;;;;5.45;3.55;;;10.80;99.90;;;;;;5051652;28;20382;-85
2022/07/01 05:55:18;;;;;;;5.22;3.38;;;10.70;99.90;;;;;;5051568;28;20414;-85
2022/07/01 05:57:45;;;;;;;5.93;3.87;;;10.60;99.90;;;;;;5051683;28;20429;-86
2022/07/01 06:00:13;;;;;;;9.40;8.30;;;10.60;99.90;;;;;;5051450;28;20371;-85
2022/07/01 06:02:43;;;;;;;8.20;6.75;;;10.50;99.90;;;;;;5051667;28;20376;-82
2022/07/01 06:05:13;;;;;;;13.30;6.53;;;10.60;99.90;;;;;;5050483;28;20380;-78
2022/07/01 06:07:41;;;;;;;10.60;7.90;;;10.60;99.90;;;;;;5051583;28;20382;-83
2022/07/01 06:10:10;;;;;;;5.70;3.83;;;10.50;99.90;;;;;;5050364;28;20474;-83
2022/07/01 06:12:38;;;;;;;5.68;3.60;;;10.50;99.90;;;;;;5054182;28;20422;-79
2022/07/01 06:15:10;;;;;;;6.70;4.40;;;10.50;99.90;;;;;;5055208;28;20442;-82
2022/07/01 06:17:39;;;;;;;6.72;4.57;;;10.50;99.90;;;;;;5055529;28;20390;-80
2022/07/01 06:20:07;;;;;;;6.38;3.85;;;10.50;99.90;;;;;;5055173;28;20852;-88
2022/07/01 06:22:35;;;;;;;12.35;10.32;;;10.50;99.90;;;;;;5055068;28;20378;-82
2022/07/01 06:25:03;;;;;;;6.13;4.90;;;10.60;99.90;;;;;;5055435;28;20863;-79
2022/07/01 06:27:30;;;;;;;4.93;3.67;;;10.60;99.90;;;;;;5055014;28;20786;-85
2022/07/01 06:29:58;;;;;;;6.40;4.32;;;10.50;99.90;;;;;;5055009;28;20434;-80
2022/07/01 06:32:25;;;;;;;6.10;4.43;;;10.40;99.90;;;;;;5055109;28;20731;-79
2022/07/01 06:34:52;;;;;;;6.83;4.97;;;10.50;99.90;;;;;;5054945;28;20407;-78
2022/07/01 06:37:21;;;;;;;8.00;4.45;;;10.40;99.90;;;;;;5056825;28;20375;-79
2022/07/01 06:39:48;;;;;;;7.28;4.93;;;10.40;99.90;;;;;;5054855;28;20379;-84
2022/07/01 06:42:15;;;;;;;8.45;6.15;;;10.40;99.90;;;;;;5054808;28;20506;-83
2022/07/01 06:44:43;;;;;;;9.13;6.22;;;10.40;99.90;;;;;;5054772;28;20376;-82
2022/07/01 06:47:10;;;;;;;9.00;6.30;;;10.40;99.90;;;;;;5055030;28;20372;-85
2022/07/01 06:49:37;;;;;;;7.82;6.47;;;10.40;99.90;;;;;;5054580;28;20384;-78
2022/07/01 06:52:05;;;;;;;8.10;6.63;;;10.40;99.90;;;;;;5054568;28;20367;-85
2022/07/01 06:54:32;;;;;;;6.73;5.37;;;10.50;99.90;;;;;;5054373;28;20392;-80
2022/07/01 06:56:59;;;;;;;6.78;5.20;;;10.50;99.90;;;;;;5054652;28;20804;-85
2022/07/01 06:59:26;;;;;;;8.77;5.47;;;10.50;99.90;;;;;;5054494;28;20400;-85
2022/07/01 07:01:53;;;;;;;8.50;5.50;;;10.50;99.90;;;;;;5054416;28;20809;-78
2022/07/01 07:04:20;;;;;;;11.20;6.60;;;10.50;99.90;;;;;;5054729;28;20372;-84
2022/07/01 07:06:48;;;;;;;7.38;6.10;;;10.50;99.90;;;;;;5053370;28;20958;-85
2022/07/01 07:09:15;;;;;;;7.88;6.55;;;10.50;99.90;;;;;;5054435;28;20386;-84
2022/07/01 07:11:42;;;;;;;8.65;5.90;;;10.50;99.90;;;;;;5054222;28;20379;-83
2022/07/01 07:14:09;;;;;;;7.83;5.10;;;10.50;99.90;;;;;;5054410;28;20482;-76
2022/07/01 07:16:36;;;;;;;5.40;4.40;;;10.50;99.90;;;;;;5054273;28;20441;-85
2022/07/01 07:19:03;;;;;;;5.63;5.00;;;10.40;99.90;;;;;;5054877;28;20762;-77
2022/07/01 07:21:30;;;;;;;6.45;4.60;;;10.40;99.90;;;;;;5054258;28;20471;-88
2022/07/01 07:23:58;;;;;;;5.50;4.05;;;10.50;99.90;;;;;;5052994;28;20402;-81
2022/07/01 07:26:25;;;;;;;5.57;4.00;;;10.50;99.90;;;;;;5053992;28;20534;-88
2022/07/01 07:28:52;;;;;;;4.63;3.88;;;10.50;99.90;;;;;;5054201;28;20717;-78
2022/07/01 07:31:19;;;;;;;5.88;3.05;;;10.50;99.90;;;;;;5053649;28;20406;-83
2022/07/01 07:33:46;;;;;;;4.50;3.40;;;10.40;99.90;;;;;;5053631;28;20374;-84
2022/07/01 07:36:13;;;;;;;6.20;3.30;;;10.40;99.90;;;;;;5053677;28;20544;-83
2022/07/01 07:38:41;;;;;;;4.43;3.40;;;10.40;99.90;;;;;;5053650;28;20374;-84
2022/07/01 07:41:08;;;;;;;4.53;4.03;;;10.40;99.90;;;;;;5053624;28;20387;-79
2022/07/01 07:43:35;;;;;;;5.90;4.60;;;10.50;99.90;;;;;;5053650;28;20372;-85
2022/07/01 07:46:04;;;;;;;5.07;4.00;;;10.50;99.90;;;;;;5056038;28;20380;-79
2022/07/01 07:48:32;;;;;;;4.03;3.50;;;10.40;99.90;;;;;;5053624;28;20380;-83
2022/07/01 07:50:59;;;;;;;3.03;2.50;;;10.50;99.90;;;;;;5053541;28;20399;-83
2022/07/01 07:53:26;;;;;;;4.68;2.65;;;10.40;99.90;;;;;;5053357;28;20371;-84
2022/07/01 07:55:53;;;;;;;6.18;3.28;;;10.40;99.90;;;;;;5053634;28;20474;-81
2022/07/01 07:58:20;;;;;;;5.17;3.40;;;10.40;99.90;;;;;;5053412;28;20379;-83
2022/07/01 08:00:47;;;;;;;3.97;2.95;;;10.40;99.90;;;;;;5053253;28;20376;-83
2022/07/01 08:03:14;;;;;;;8.68;5.63;;;10.40;99.90;;;;;;5051998;28;20372;-81
2022/07/01 08:05:41;;;;;;;6.80;6.10;;;10.40;99.90;;;;;;5052713;28;20779;-85
2022/07/01 08:08:09;;;;;;;8.25;6.55;;;10.40;99.90;;;;;;5053181;28;20447;-81
2022/07/01 08:10:36;;;;;;;5.93;4.78;;;10.40;99.90;;;;;;5053011;28;20376;-84
2022/07/01 08:13:04;;;;;;;6.88;3.80;;;10.40;99.90;;;;;;5053067;28;20372;-84
2022/07/01 08:15:32;;;;;;;4.00;3.30;;;10.30;99.90;;;;;;5053232;28;20391;-85
2022/07/01 08:17:59;;;;;;;3.40;3.10;;;10.30;99.90;;;;;;5053345;28;20408;-81
2022/07/01 08:20:26;;;;;;;6.97;6.28;;;10.30;99.90;;;;;;5053420;28;20376;-87
2022/07/01 08:22:53;;;;;;;6.55;5.95;;;10.30;99.90;;;;;;5053166;28;20372;-82
2022/07/01 08:25:20;;;;;;;7.50;6.07;;;10.30;99.90;;;;;;5053184;28;20386;-87
2022/07/01 08:27:48;;;;;;;14.20;9.48;;;10.30;99.90;;;;;;5053125;28;20372;-84
2022/07/01 08:30:15;;;;;;;6.55;5.50;;;10.30;99.90;;;;;;5052966;28;20445;-87
2022/07/01 08:32:42;;;;;;;8.77;6.55;;;10.30;99.90;;;;;;5053362;28;20361;-81
2022/07/01 08:35:09;;;;;;;4.28;3.30;;;10.20;99.90;;;;;;5052666;28;20403;-82
2022/07/01 08:37:36;;;;;;;8.73;7.28;;;10.20;99.90;;;;;;5053317;28;20372;-86
2022/07/01 08:40:04;;;;;;;6.28;5.68;;;10.20;99.90;;;;;;5053102;28;20380;-83
2022/07/01 08:42:31;;;;;;;4.78;4.30;;;10.30;99.90;;;;;;5053392;28;20375;-84
2022/07/01 08:44:58;;;;;;;5.78;4.95;;;10.30;99.90;;;;;;5053294;28;20470;-85
2022/07/01 08:47:25;;;;;;;6.63;5.28;;;10.20;99.90;;;;;;5052872;28;20375;-82
2022/07/01 08:49:52;;;;;;;5.93;3.90;;;10.20;99.90;;;;;;5052736;28;20908;-82
2022/07/01 08:52:19;;;;;;;4.85;3.72;;;10.20;99.90;;;;;;5053722;28;20380;-86
2022/07/01 08:54:47;;;;;;;5.60;4.68;;;10.20;99.90;;;;;;5057556;28;20395;-80
2022/07/01 08:57:20;;;;;;;3.97;3.55;;;10.30;99.90;;;;;;5052740;28;20549;-86
2022/07/01 09:00:03;;;;;;;3.50;3.20;;;10.30;99.90;;;;;;5051737;28;20379;-80
2022/07/01 09:02:53;;;;;;;4.90;3.30;;;10.20;99.90;;;;;;5052764;28;20379;-87
2022/07/01 09:05:22;;;;;;;21.77;19.63;;;10.30;99.90;;;;;;5052546;28;20848;-84
2022/07/01 09:07:55;;;;;;;3.22;2.45;;;10.20;99.90;;;;;;5052692;28;20383;-82
2022/07/01 09:10:23;;;;;;;3.58;2.30;;;10.30;99.90;;;;;;5056915;28;20372;-84
2022/07/01 09:12:50;;;;;;;4.30;3.90;;;10.30;99.90;;;;;;5056959;28;20372;-86
2022/07/01 09:15:27;;;;;;;3.53;2.33;;;10.30;99.90;;;;;;5054333;28;20414;-81
2022/07/01 09:17:56;;;;;;;3.15;2.85;;;10.30;99.90;;;;;;5052494;28;20383;-82
2022/07/01 09:20:26;;;;;;;3.53;3.20;;;10.30;99.90;;;;;;5052589;28;20417;-81
2022/07/01 09:23:04;;;;;;;3.95;2.50;;;10.30;99.90;;;;;;5052373;28;20372;-80
2022/07/01 09:25:39;;;;;;;3.03;2.72;;;10.30;99.90;;;;;;5052276;28;20767;-85
2022/07/01 09:28:09;;;;;;;7.72;2.95;;;10.40;99.90;;;;;;5053044;28;20368;-87
2022/07/01 09:30:37;;;;;;;4.47;4.07;;;10.40;99.90;;;;;;5052255;28;20848;-88
2022/07/01 09:33:17;;;;;;;5.60;5.00;;;10.40;99.90;;;;;;5052560;28;20384;-88
2022/07/01 09:35:46;;;;;;;4.32;3.83;;;10.40;99.90;;;;;;5052209;28;20407;-81
2022/07/01 09:38:19;;;;;;;6.23;5.73;;;10.40;99.90;;;;;;5051762;28;20388;-80
2022/07/01 09:40:58;;;;;;;6.00;5.40;;;11.60;99.90;;;;;;5052508;28;20383;-86
2022/07/01 09:43:33;;;;;;;4.18;3.78;;;10.30;99.90;;;;;;5052380;28;20372;-86
2022/07/01 09:46:11;;;;;;;6.00;3.47;;;10.30;99.90;;;;;;5052485;28;20395;-81
2022/07/01 09:48:44;;;;;;;4.00;3.58;;;10.30;99.90;;;;;;5056659;28;20443;-87
2022/07/01 09:51:13;;;;;;;5.30;3.78;;;10.30;99.90;;;;;;5056668;28;20466;-87
2022/07/01 09:53:40;;;;;;;4.25;3.80;;;10.30;99.90;;;;;;5056458;28;20378;-86
2022/07/01 09:56:07;;;;;;;4.78;4.10;;;10.30;99.90;;;;;;5056075;28;20879;-86
2022/07/01 09:58:38;;;;;;;4.38;4.00;;;10.30;99.90;;;;;;5056555;28;20482;-79
2022/07/01 10:01:08;;;;;;;4.72;4.10;;;10.40;99.90;;;;;;5056433;28;20365;-85
2022/07/01 10:03:39;;;;;;;4.40;3.80;;;10.40;99.90;;;;;;5056358;28;20363;-79
2022/07/01 10:06:38;;;;;;;4.20;3.72;;;10.30;99.90;;;;;;5056008;28;20472;-85
2022/07/01 10:09:26;;;;;;;4.10;3.75;;;10.40;99.90;;;;;;5034322;28;20378;-86
2022/07/01 10:12:41;;;;;;;12.25;11.07;;;10.40;99.90;;;;;;5033971;28;20392;-86
2022/07/01 10:15:11;;;;;;;4.93;4.20;;;10.40;99.90;;;;;;4975119;28;20410;-87
2022/07/01 10:17:44;;;;;;;5.18;3.97;;;10.40;99.90;;;;;;4974844;28;20880;-80
2022/07/01 10:20:17;;;;;;;4.25;3.85;;;10.40;99.90;;;;;;4974961;28;20445;-86
2022/07/01 10:22:45;;;;;;;5.03;3.93;;;10.40;99.90;;;;;;4974885;28;20398;-87
2022/07/01 10:25:31;;;;;;;4.50;4.10;;;10.30;99.90;;;;;;4974661;28;20378;-87
2022/07/01 10:28:27;;;;;;;4.03;3.70;;;10.40;99.90;;;;;;4975024;28;20465;-86
2022/07/01 10:31:09;;;;;;;4.18;3.78;;;10.40;99.90;;;;;;4974159;28;20493;-86
2022/07/01 10:33:41;;;;;;;4.10;3.70;;;10.40;99.90;;;;;;4974331;28;20375;-84
2022/07/01 10:36:09;;;;;;;3.75;3.33;;;10.40;99.90;;;;;;4974809;28;20946;-80
2022/07/01 10:38:57;;;;;;;3.33;3.03;;;10.40;99.90;;;;;;4976300;28;20382;-82
2022/07/01 10:41:29;;;;;;;3.17;2.50;;;10.30;99.90;;;;;;4974884;28;20466;-86
2022/07/01 10:43:57;;;;;;;2.30;2.10;;;10.30;99.90;;;;;;4974702;28;20494;-86
2022/07/01 10:46:43;;;;;;;4.30;2.30;;;10.40;99.90;;;;;;4991966;28;20380;-85
2022/07/01 10:49:14;;;;;;;2.67;2.42;;;10.40;99.90;;;;;;4993908;28;20381;-87
2022/07/01 10:51:56;;;;;;;2.72;2.40;;;10.40;99.90;;;;;;5029073;28;20386;-87
2022/07/01 10:54:39;;;;;;;3.97;2.20;;;10.30;99.90;;;;;;5055612;28;20395;-89
2022/07/01 10:57:18;;;;;;;3.25;2.80;;;10.40;99.90;;;;;;5055420;28;20380;-80
2022/07/01 10:59:48;;;;;;;5.38;3.30;;;10.40;99.90;;;;;;5054800;28;20917;-88
2022/07/01 11:02:18;;;;;;;3.20;2.97;;;10.40;99.90;;;;;;5055164;28;20380;-85
2022/07/01 11:04:45;;;;;;;4.32;3.92;;;10.40;99.90;;;;;;5055433;28;20376;-87
2022/07/01 11:07:13;;;;;;;8.70;7.90;;;10.40;99.90;;;;;;5054823;28;20391;-87
2022/07/01 11:09:41;;;;;;;6.07;5.57;;;10.40;99.90;;;;;;5055440;28;20408;-87
2022/07/01 11:12:09;;;;;;;9.27;8.40;;;10.40;99.90;;;;;;5054714;28;20852;-85
2022/07/01 11:14:39;;;;;;;4.13;3.83;;;10.30;99.90;;;;;;5054508;28;20403;-85
2022/07/01 11:17:08;;;;;;;2.15;1.95;;;10.30;99.90;;;;;;5055365;28;20413;-85
2022/07/01 11:19:36;;;;;;;1.67;1.40;;;10.30;99.90;;;;;;5054661;28;20425;-85
2022/07/01 11:22:07;;;;;;;1.70;1.45;;;10.30;99.90;;;;;;5054582;28;20367;-80
2022/07/01 11:24:34;;;;;;;2.05;1.90;;;10.30;99.90;;;;;;5054713;28;20364;-81
2022/07/01 11:27:07;;;;;;;2.38;2.20;;;10.30;99.90;;;;;;5054746;28;20446;-81
2022/07/01 11:29:35;;;;;;;1.80;1.70;;;10.30;99.90;;;;;;5054212;28;20471;-86
2022/07/01 11:32:02;;;;;;;2.58;2.38;;;10.30;99.90;;;;;;5054042;28;20572;-87
2022/07/01 11:34:30;;;;;;;1.65;1.52;;;10.30;99.90;;;;;;5054066;28;20430;-87
2022/07/01 11:39:43;;;;;;;1.55;1.45;;;10.30;99.90;;;;;;5054197;28;20367;-87
2022/07/01 11:42:11;;;;;;;2.45;1.70;;;10.30;99.90;;;;;;5053776;28;20917;-82
2022/07/01 11:44:44;;;;;;;1.80;1.70;;;10.30;99.90;;;;;;5053839;28;20368;-86
2022/07/01 11:47:22;;;;;;;2.45;1.52;;;10.30;99.90;;;;;;5053688;28;20372;-84
2022/07/01 11:49:50;;;;;;;1.97;1.40;;;10.30;99.90;;;;;;5053656;28;20368;-87
2022/07/01 11:52:19;;;;;;;1.83;1.50;;;10.30;99.90;;;;;;5056182;28;20530;-85
2022/07/01 11:54:49;;;;;;;3.55;1.75;;;10.30;99.90;;;;;;5053682;28;20422;-81
2022/07/01 11:57:22;;;;;;;5.70;2.30;;;10.30;99.90;;;;;;5054147;28;20368;-83
2022/07/01 11:59:51;;;;;;;7.10;3.17;;;10.30;99.90;;;;;;5053970;28;20504;-84
2022/07/01 12:02:21;;;;;;;7.22;3.00;;;10.30;99.90;;;;;;5053387;28;20778;-83
2022/07/01 12:04:49;;;;;;;5.20;3.35;;;10.40;99.90;;;;;;5053458;28;20380;-80
2022/07/01 12:07:21;;;;;;;3.88;3.58;;;10.30;99.90;;;;;;5053847;28;20383;-85
2022/07/01 12:09:48;;;;;;;5.05;4.55;;;10.30;99.90;;;;;;5052807;28;20403;-82
2022/07/01 12:12:21;;;;;;;6.53;4.80;;;10.30;99.90;;;;;;5056521;28;20377;-87
2022/07/01 12:14:53;;;;;;;6.07;4.80;;;10.30;99.90;;;;;;5053968;28;20387;-82
2022/07/01 12:17:21;;;;;;;6.25;4.53;;;10.30;99.90;;;;;;5053372;28;20384;-84
2022/07/01 12:19:50;;;;;;;8.10;5.00;;;10.40;99.90;;;;;;5053234;28;20716;-80
2022/07/01 12:22:25;;;;;;;6.43;5.03;;;10.30;99.90;;;;;;5053387;28;20459;-83
2022/07/01 12:25:14;;;;;;;7.32;5.30;;;10.30;99.90;;;;;;5053046;28;20474;-87
2022/07/01 12:27:43;;;;;;;6.55;5.22;;;10.30;99.90;;;;;;5052963;28;20923;-80
2022/07/01 12:30:13;;;;;;;6.60;5.30;;;10.30;99.90;;;;;;5052467;28;20396;-85
2022/07/01 12:32:43;;;;;;;6.85;5.53;;;10.30;99.90;;;;;;5053525;28;20371;-85
2022/07/01 12:37:58;;;;;;;7.40;5.10;;;10.20;99.90;;;;;;5031061;28;20369;-85
2022/07/01 12:40:29;;;;;;;7.28;5.32;;;10.10;99.90;;;;;;5031117;28;20400;-83
2022/07/01 12:42:59;;;;;;;6.33;4.90;;;10.10;99.90;;;;;;5030888;28;20409;-88
2022/07/01 12:45:27;;;;;;;6.40;5.13;;;10.10;99.90;;;;;;5030731;28;20421;-82
2022/07/01 12:47:56;;;;;;;5.35;4.85;;;10.10;99.90;;;;;;5030779;28;20405;-80
2022/07/01 12:50:25;;;;;;;6.18;4.82;;;10.10;99.90;;;;;;5030852;28;20389;-87
2022/07/01 12:53:07;;;;;;;7.80;4.50;;;10.10;99.90;;;;;;5030498;28;20388;-81
2022/07/01 12:55:38;;;;;;;6.43;4.90;;;10.00;99.90;;;;;;5030383;28;20401;-88
2022/07/01 12:58:09;;;;;;;5.55;4.78;;;10.00;99.90;;;;;;5030906;28;20377;-83
2022/07/01 13:00:38;;;;;;;6.83;5.37;;;10.00;99.90;;;;;;5030913;28;20733;-86
2022/07/01 13:03:22;;;;;;;7.70;5.25;;;10.00;99.90;;;;;;5030582;28;20370;-84
2022/07/01 13:05:50;;;;;;;6.45;5.18;;;10.00;99.90;;;;;;5030777;28;20390;-85
2022/07/01 13:08:18;;;;;;;5.88;5.20;;;10.00;99.90;;;;;;5030241;28;20382;-88
2022/07/01 13:10:46;;;;;;;5.43;4.93;;;10.00;99.90;;;;;;5030334;28;20392;-80
2022/07/01 13:13:14;;;;;;;4.88;4.38;;;10.00;99.90;;;;;;5030142;28;20564;-79
2022/07/01 13:15:42;;;;;;;6.32;4.40;;;10.00;99.90;;;;;;5047262;28;20748;-82